sensor_id;sensor_type;location;lat;lon;timestamp;P1;durP1;ratioP1;P2;durP2;ratioP2
25988;SDS011;13778;48.236;9.894;2024-02-26T00:02:39;7.50;;;4.03;;
25988;SDS011;13778;48.236;9.894;2024-02-26T00:05:30;6.10;;;3.97;;
25988;SDS011;13778;48.236;9.894;2024-02-26T00:08:21;8.57;;;4.22;;
25988;SDS011;13778;48.236;9.894;2024-02-26T00:11:12;4.85;;;4.28;;
25988;SDS011;13778;48.236;9.894;2024-02-26T00:14:02;5.80;;;3.83;;
25988;SDS011;13778;48.236;9.894;2024-02-26T00:16:53;5.82;;;4.20;;
25988;SDS011;13778;48.236;9.894;2024-02-26T00:19:44;6.53;;;3.83;;
25988;SDS011;13778;48.236;9.894;2024-02-26T00:25:25;6.07;;;4.60;;
25988;SDS011;13778;48.236;9.894;2024-02-26T00:28:16;5.90;;;4.18;;
25988;SDS011;13778;48.236;9.894;2024-02-26T00:31:06;8.75;;;4.25;;
25988;SDS011;13778;48.236;9.894;2024-02-26T00:33:57;8.38;;;4.05;;
25988;SDS011;13778;48.236;9.894;2024-02-26T00:36:49;6.63;;;4.70;;
25988;SDS011;13778;48.236;9.894;2024-02-26T00:39:39;6.88;;;4.35;;
25988;SDS011;13778;48.236;9.894;2024-02-26T00:42:29;5.43;;;4.50;;
25988;SDS011;13778;48.236;9.894;2024-02-26T00:45:20;7.55;;;4.93;;
25988;SDS011;13778;48.236;9.894;2024-02-26T00:48:10;5.07;;;4.55;;
25988;SDS011;13778;48.236;9.894;2024-02-26T00:51:02;8.48;;;4.38;;
25988;SDS011;13778;48.236;9.894;2024-02-26T00:53:55;7.00;;;4.65;;
25988;SDS011;13778;48.236;9.894;2024-02-26T00:59:36;7.57;;;4.82;;
25988;SDS011;13778;48.236;9.894;2024-02-26T01:02:26;10.00;;;4.95;;
25988;SDS011;13778;48.236;9.894;2024-02-26T01:05:17;6.72;;;5.18;;
25988;SDS011;13778;48.236;9.894;2024-02-26T01:08:07;8.73;;;4.93;;
25988;SDS011;13778;48.236;9.894;2024-02-26T01:10:59;6.22;;;4.70;;
25988;SDS011;13778;48.236;9.894;2024-02-26T01:16:42;5.53;;;4.65;;
25988;SDS011;13778;48.236;9.894;2024-02-26T01:19:33;7.60;;;4.90;;
25988;SDS011;13778;48.236;9.894;2024-02-26T01:22:23;5.72;;;4.50;;
25988;SDS011;13778;48.236;9.894;2024-02-26T01:25:14;9.15;;;5.55;;
25988;SDS011;13778;48.236;9.894;2024-02-26T01:28:06;7.28;;;5.30;;
25988;SDS011;13778;48.236;9.894;2024-02-26T01:30:56;7.22;;;5.40;;
25988;SDS011;13778;48.236;9.894;2024-02-26T01:33:47;9.20;;;5.23;;
25988;SDS011;13778;48.236;9.894;2024-02-26T01:36:38;8.88;;;4.93;;
25988;SDS011;13778;48.236;9.894;2024-02-26T01:39:28;8.57;;;5.40;;
25988;SDS011;13778;48.236;9.894;2024-02-26T01:42:19;7.22;;;5.93;;
25988;SDS011;13778;48.236;9.894;2024-02-26T01:45:12;7.68;;;5.63;;
25988;SDS011;13778;48.236;9.894;2024-02-26T01:48:05;6.32;;;5.57;;
25988;SDS011;13778;48.236;9.894;2024-02-26T01:50:55;9.20;;;6.25;;
25988;SDS011;13778;48.236;9.894;2024-02-26T01:53:46;7.05;;;5.60;;
25988;SDS011;13778;48.236;9.894;2024-02-26T01:56:37;7.97;;;6.72;;
25988;SDS011;13778;48.236;9.894;2024-02-26T01:59:27;7.73;;;5.37;;
25988;SDS011;13778;48.236;9.894;2024-02-26T02:02:19;7.95;;;6.15;;
25988;SDS011;13778;48.236;9.894;2024-02-26T02:05:10;7.65;;;5.90;;
25988;SDS011;13778;48.236;9.894;2024-02-26T02:08:02;7.57;;;6.40;;
25988;SDS011;13778;48.236;9.894;2024-02-26T02:10:53;10.85;;;6.65;;
25988;SDS011;13778;48.236;9.894;2024-02-26T02:13:44;8.95;;;6.20;;
25988;SDS011;13778;48.236;9.894;2024-02-26T02:16:34;8.95;;;6.65;;
25988;SDS011;13778;48.236;9.894;2024-02-26T02:19:26;8.60;;;6.28;;
25988;SDS011;13778;48.236;9.894;2024-02-26T02:25:08;9.25;;;6.28;;
25988;SDS011;13778;48.236;9.894;2024-02-26T02:30:49;11.43;;;6.68;;
25988;SDS011;13778;48.236;9.894;2024-02-26T02:33:39;10.30;;;7.05;;
25988;SDS011;13778;48.236;9.894;2024-02-26T02:36:30;9.15;;;6.63;;
25988;SDS011;13778;48.236;9.894;2024-02-26T02:39:20;8.93;;;7.28;;
25988;SDS011;13778;48.236;9.894;2024-02-26T02:42:12;8.93;;;7.00;;
25988;SDS011;13778;48.236;9.894;2024-02-26T02:45:02;10.60;;;6.90;;
25988;SDS011;13778;48.236;9.894;2024-02-26T02:47:53;11.85;;;6.88;;
25988;SDS011;13778;48.236;9.894;2024-02-26T02:50:44;10.45;;;7.90;;
25988;SDS011;13778;48.236;9.894;2024-02-26T02:53:35;10.88;;;7.80;;
25988;SDS011;13778;48.236;9.894;2024-02-26T02:56:25;10.90;;;7.20;;
25988;SDS011;13778;48.236;9.894;2024-02-26T02:59:17;10.40;;;6.75;;
25988;SDS011;13778;48.236;9.894;2024-02-26T03:02:08;10.85;;;7.63;;
25988;SDS011;13778;48.236;9.894;2024-02-26T03:04:58;9.65;;;7.18;;
25988;SDS011;13778;48.236;9.894;2024-02-26T03:07:49;10.13;;;6.63;;
25988;SDS011;13778;48.236;9.894;2024-02-26T03:10:39;12.13;;;6.50;;
25988;SDS011;13778;48.236;9.894;2024-02-26T03:13:31;9.68;;;6.68;;
25988;SDS011;13778;48.236;9.894;2024-02-26T03:16:23;10.25;;;6.97;;
25988;SDS011;13778;48.236;9.894;2024-02-26T03:19:14;9.88;;;6.60;;
25988;SDS011;13778;48.236;9.894;2024-02-26T03:22:04;8.87;;;7.23;;
25988;SDS011;13778;48.236;9.894;2024-02-26T03:24:55;11.45;;;6.80;;
25988;SDS011;13778;48.236;9.894;2024-02-26T03:27:45;9.93;;;6.85;;
25988;SDS011;13778;48.236;9.894;2024-02-26T03:30:36;9.90;;;6.82;;
25988;SDS011;13778;48.236;9.894;2024-02-26T03:33:28;8.63;;;6.75;;
25988;SDS011;13778;48.236;9.894;2024-02-26T03:39:09;9.85;;;7.45;;
25988;SDS011;13778;48.236;9.894;2024-02-26T03:42:00;9.38;;;7.38;;
25988;SDS011;13778;48.236;9.894;2024-02-26T03:44:50;9.15;;;6.80;;
25988;SDS011;13778;48.236;9.894;2024-02-26T03:47:40;12.02;;;7.50;;
25988;SDS011;13778;48.236;9.894;2024-02-26T03:50:32;10.18;;;7.18;;
25988;SDS011;13778;48.236;9.894;2024-02-26T03:53:23;11.23;;;7.78;;
25988;SDS011;13778;48.236;9.894;2024-02-26T03:56:14;12.60;;;8.60;;
25988;SDS011;13778;48.236;9.894;2024-02-26T03:59:04;11.55;;;8.02;;
25988;SDS011;13778;48.236;9.894;2024-02-26T04:01:55;11.13;;;7.70;;
25988;SDS011;13778;48.236;9.894;2024-02-26T04:04:45;9.90;;;8.18;;
25988;SDS011;13778;48.236;9.894;2024-02-26T04:07:37;13.25;;;8.45;;
25988;SDS011;13778;48.236;9.894;2024-02-26T04:10:28;12.02;;;7.65;;
25988;SDS011;13778;48.236;9.894;2024-02-26T04:13:19;13.98;;;8.10;;
25988;SDS011;13778;48.236;9.894;2024-02-26T04:16:09;10.57;;;7.75;;
25988;SDS011;13778;48.236;9.894;2024-02-26T04:19:00;9.60;;;8.27;;
25988;SDS011;13778;48.236;9.894;2024-02-26T04:21:50;12.35;;;8.13;;
25988;SDS011;13778;48.236;9.894;2024-02-26T04:24:42;13.48;;;8.75;;
25988;SDS011;13778;48.236;9.894;2024-02-26T04:27:33;13.13;;;9.40;;
25988;SDS011;13778;48.236;9.894;2024-02-26T04:30:23;16.10;;;8.82;;
25988;SDS011;13778;48.236;9.894;2024-02-26T04:33:14;14.38;;;8.48;;
25988;SDS011;13778;48.236;9.894;2024-02-26T04:36:04;13.68;;;9.50;;
25988;SDS011;13778;48.236;9.894;2024-02-26T04:38:55;13.25;;;9.68;;
25988;SDS011;13778;48.236;9.894;2024-02-26T04:41:47;14.85;;;9.68;;
25988;SDS011;13778;48.236;9.894;2024-02-26T04:47:27;14.35;;;9.43;;
25988;SDS011;13778;48.236;9.894;2024-02-26T04:50:18;14.00;;;9.73;;
25988;SDS011;13778;48.236;9.894;2024-02-26T04:53:09;13.30;;;9.70;;
25988;SDS011;13778;48.236;9.894;2024-02-26T04:55:59;19.42;;;9.88;;
25988;SDS011;13778;48.236;9.894;2024-02-26T04:58:51;17.08;;;11.40;;
25988;SDS011;13778;48.236;9.894;2024-02-26T05:04:32;14.55;;;9.60;;
25988;SDS011;13778;48.236;9.894;2024-02-26T05:07:23;13.85;;;10.98;;
25988;SDS011;13778;48.236;9.894;2024-02-26T05:10:13;14.77;;;10.45;;
25988;SDS011;13778;48.236;9.894;2024-02-26T05:13:03;17.40;;;11.13;;
25988;SDS011;13778;48.236;9.894;2024-02-26T05:15:55;17.05;;;11.50;;
25988;SDS011;13778;48.236;9.894;2024-02-26T05:21:36;18.55;;;11.15;;
25988;SDS011;13778;48.236;9.894;2024-02-26T05:24:26;15.75;;;10.98;;
25988;SDS011;13778;48.236;9.894;2024-02-26T05:27:17;13.65;;;10.20;;
25988;SDS011;13778;48.236;9.894;2024-02-26T05:30:08;17.83;;;11.45;;
25988;SDS011;13778;48.236;9.894;2024-02-26T05:32:59;15.77;;;11.00;;
25988;SDS011;13778;48.236;9.894;2024-02-26T05:35:50;17.10;;;10.52;;
25988;SDS011;13778;48.236;9.894;2024-02-26T05:38:40;12.25;;;8.25;;
25988;SDS011;13778;48.236;9.894;2024-02-26T05:41:31;14.10;;;9.48;;
25988;SDS011;13778;48.236;9.894;2024-02-26T05:44:22;15.18;;;10.55;;
25988;SDS011;13778;48.236;9.894;2024-02-26T05:47:12;15.30;;;10.27;;
25988;SDS011;13778;48.236;9.894;2024-02-26T05:50:05;13.35;;;9.23;;
25988;SDS011;13778;48.236;9.894;2024-02-26T05:52:56;14.85;;;9.70;;
25988;SDS011;13778;48.236;9.894;2024-02-26T05:55:46;13.88;;;9.75;;
25988;SDS011;13778;48.236;9.894;2024-02-26T05:58:36;14.65;;;9.85;;
25988;SDS011;13778;48.236;9.894;2024-02-26T06:01:27;10.77;;;7.90;;
25988;SDS011;13778;48.236;9.894;2024-02-26T06:04:17;13.95;;;10.07;;
25988;SDS011;13778;48.236;9.894;2024-02-26T06:07:09;10.73;;;8.52;;
25988;SDS011;13778;48.236;9.894;2024-02-26T06:10:00;14.90;;;9.75;;
25988;SDS011;13778;48.236;9.894;2024-02-26T06:12:50;12.82;;;9.50;;
25988;SDS011;13778;48.236;9.894;2024-02-26T06:15:41;16.77;;;10.48;;
25988;SDS011;13778;48.236;9.894;2024-02-26T06:18:32;14.32;;;9.35;;
25988;SDS011;13778;48.236;9.894;2024-02-26T06:21:22;17.38;;;11.43;;
25988;SDS011;13778;48.236;9.894;2024-02-26T06:24:14;14.65;;;9.43;;
25988;SDS011;13778;48.236;9.894;2024-02-26T06:29:55;11.65;;;8.48;;
25988;SDS011;13778;48.236;9.894;2024-02-26T06:32:45;12.02;;;8.40;;
25988;SDS011;13778;48.236;9.894;2024-02-26T06:35:36;14.32;;;9.23;;
25988;SDS011;13778;48.236;9.894;2024-02-26T06:38:26;16.33;;;12.07;;
25988;SDS011;13778;48.236;9.894;2024-02-26T06:41:18;14.20;;;10.27;;
25988;SDS011;13778;48.236;9.894;2024-02-26T06:46:59;15.73;;;9.23;;
25988;SDS011;13778;48.236;9.894;2024-02-26T06:49:49;16.38;;;9.45;;
25988;SDS011;13778;48.236;9.894;2024-02-26T06:52:40;12.38;;;8.93;;
25988;SDS011;13778;48.236;9.894;2024-02-26T06:55:30;16.33;;;10.57;;
25988;SDS011;13778;48.236;9.894;2024-02-26T06:58:22;16.38;;;10.50;;
25988;SDS011;13778;48.236;9.894;2024-02-26T07:01:13;16.13;;;10.98;;
25988;SDS011;13778;48.236;9.894;2024-02-26T07:04:03;16.83;;;10.73;;
25988;SDS011;13778;48.236;9.894;2024-02-26T07:06:54;16.67;;;11.43;;
25988;SDS011;13778;48.236;9.894;2024-02-26T07:09:44;18.08;;;11.00;;
25988;SDS011;13778;48.236;9.894;2024-02-26T07:12:35;19.25;;;11.70;;
25988;SDS011;13778;48.236;9.894;2024-02-26T07:15:27;20.60;;;11.77;;
25988;SDS011;13778;48.236;9.894;2024-02-26T07:21:07;19.80;;;12.07;;
25988;SDS011;13778;48.236;9.894;2024-02-26T07:23:58;18.42;;;12.43;;
25988;SDS011;13778;48.236;9.894;2024-02-26T07:26:48;22.38;;;15.48;;
25988;SDS011;13778;48.236;9.894;2024-02-26T07:29:39;20.27;;;14.18;;
25988;SDS011;13778;48.236;9.894;2024-02-26T07:32:31;20.38;;;13.25;;
25988;SDS011;13778;48.236;9.894;2024-02-26T07:38:11;18.77;;;12.70;;
25988;SDS011;13778;48.236;9.894;2024-02-26T07:41:03;23.35;;;14.38;;
25988;SDS011;13778;48.236;9.894;2024-02-26T07:43:54;24.10;;;15.32;;
25988;SDS011;13778;48.236;9.894;2024-02-26T07:46:44;22.55;;;13.48;;
25988;SDS011;13778;48.236;9.894;2024-02-26T07:49:36;20.75;;;14.63;;
25988;SDS011;13778;48.236;9.894;2024-02-26T07:52:27;20.75;;;13.98;;
25988;SDS011;13778;48.236;9.894;2024-02-26T07:55:17;22.52;;;13.25;;
25988;SDS011;13778;48.236;9.894;2024-02-26T07:58:08;24.17;;;14.50;;
25988;SDS011;13778;48.236;9.894;2024-02-26T08:00:58;22.20;;;14.82;;
25988;SDS011;13778;48.236;9.894;2024-02-26T08:03:48;21.65;;;14.23;;
25988;SDS011;13778;48.236;9.894;2024-02-26T08:06:40;22.90;;;15.77;;
25988;SDS011;13778;48.236;9.894;2024-02-26T08:09:32;22.42;;;14.70;;
25988;SDS011;13778;48.236;9.894;2024-02-26T08:12:22;22.83;;;15.80;;
25988;SDS011;13778;48.236;9.894;2024-02-26T08:15:13;25.95;;;15.80;;
25988;SDS011;13778;48.236;9.894;2024-02-26T08:18:04;23.45;;;15.75;;
25988;SDS011;13778;48.236;9.894;2024-02-26T08:20:54;23.20;;;14.85;;
25988;SDS011;13778;48.236;9.894;2024-02-26T08:23:46;20.55;;;14.32;;
25988;SDS011;13778;48.236;9.894;2024-02-26T08:29:27;25.98;;;15.63;;
25988;SDS011;13778;48.236;9.894;2024-02-26T08:32:17;22.75;;;14.70;;
25988;SDS011;13778;48.236;9.894;2024-02-26T08:35:08;24.00;;;15.52;;
25988;SDS011;13778;48.236;9.894;2024-02-26T08:37:59;28.60;;;16.17;;
25988;SDS011;13778;48.236;9.894;2024-02-26T08:40:51;30.08;;;16.75;;
25988;SDS011;13778;48.236;9.894;2024-02-26T08:43:41;27.58;;;16.73;;
25988;SDS011;13778;48.236;9.894;2024-02-26T08:46:32;28.08;;;17.80;;
25988;SDS011;13778;48.236;9.894;2024-02-26T08:49:22;26.52;;;16.88;;
25988;SDS011;13778;48.236;9.894;2024-02-26T08:52:13;29.13;;;18.48;;
25988;SDS011;13778;48.236;9.894;2024-02-26T08:55:03;28.50;;;16.25;;
25988;SDS011;13778;48.236;9.894;2024-02-26T08:57:56;28.02;;;16.77;;
25988;SDS011;13778;48.236;9.894;2024-02-26T09:00:47;24.55;;;16.88;;
25988;SDS011;13778;48.236;9.894;2024-02-26T09:03:37;26.10;;;17.05;;
25988;SDS011;13778;48.236;9.894;2024-02-26T09:06:29;24.60;;;16.95;;
25988;SDS011;13778;48.236;9.894;2024-02-26T09:09:19;26.92;;;18.10;;
25988;SDS011;13778;48.236;9.894;2024-02-26T09:12:11;25.02;;;16.98;;
25988;SDS011;13778;48.236;9.894;2024-02-26T09:15:03;25.35;;;16.98;;
25988;SDS011;13778;48.236;9.894;2024-02-26T09:17:54;27.05;;;16.58;;
25988;SDS011;13778;48.236;9.894;2024-02-26T09:20:44;27.75;;;17.15;;
25988;SDS011;13778;48.236;9.894;2024-02-26T09:23:35;28.25;;;16.80;;
25988;SDS011;13778;48.236;9.894;2024-02-26T09:26:25;27.23;;;16.90;;
25988;SDS011;13778;48.236;9.894;2024-02-26T09:29:16;27.75;;;17.92;;
25988;SDS011;13778;48.236;9.894;2024-02-26T09:32:08;26.52;;;17.13;;
25988;SDS011;13778;48.236;9.894;2024-02-26T09:37:49;22.85;;;15.10;;
25988;SDS011;13778;48.236;9.894;2024-02-26T09:40:40;23.73;;;15.57;;
25988;SDS011;13778;48.236;9.894;2024-02-26T09:43:32;27.08;;;18.40;;
25988;SDS011;13778;48.236;9.894;2024-02-26T09:46:24;23.48;;;15.45;;
25988;SDS011;13778;48.236;9.894;2024-02-26T09:49:16;24.98;;;15.52;;
25988;SDS011;13778;48.236;9.894;2024-02-26T09:52:07;24.52;;;15.65;;
25988;SDS011;13778;48.236;9.894;2024-02-26T09:54:58;20.58;;;13.30;;
25988;SDS011;13778;48.236;9.894;2024-02-26T09:57:49;20.53;;;14.03;;
25988;SDS011;13778;48.236;9.894;2024-02-26T10:00:41;25.23;;;12.52;;
25988;SDS011;13778;48.236;9.894;2024-02-26T10:03:34;19.38;;;12.73;;
25988;SDS011;13778;48.236;9.894;2024-02-26T10:06:30;18.08;;;12.65;;
25988;SDS011;13778;48.236;9.894;2024-02-26T10:12:11;21.13;;;14.10;;
25988;SDS011;13778;48.236;9.894;2024-02-26T10:15:01;21.70;;;12.55;;
25988;SDS011;13778;48.236;9.894;2024-02-26T10:17:52;17.92;;;12.07;;
25988;SDS011;13778;48.236;9.894;2024-02-26T10:20:43;18.67;;;11.75;;
25988;SDS011;13778;48.236;9.894;2024-02-26T10:23:50;16.90;;;11.75;;
25988;SDS011;13778;48.236;9.894;2024-02-26T10:29:30;16.02;;;11.07;;
25988;SDS011;13778;48.236;9.894;2024-02-26T10:32:21;13.98;;;9.88;;
25988;SDS011;13778;48.236;9.894;2024-02-26T10:35:11;18.92;;;13.88;;
25988;SDS011;13778;48.236;9.894;2024-02-26T10:38:02;16.80;;;12.95;;
25988;SDS011;13778;48.236;9.894;2024-02-26T10:40:54;23.10;;;17.17;;
25988;SDS011;13778;48.236;9.894;2024-02-26T10:43:44;21.83;;;14.88;;
25988;SDS011;13778;48.236;9.894;2024-02-26T10:46:35;22.52;;;15.13;;
25988;SDS011;13778;48.236;9.894;2024-02-26T10:49:25;28.73;;;16.77;;
25988;SDS011;13778;48.236;9.894;2024-02-26T10:52:16;23.70;;;16.13;;
25988;SDS011;13778;48.236;9.894;2024-02-26T10:55:09;21.17;;;14.95;;
25988;SDS011;13778;48.236;9.894;2024-02-26T10:58:04;23.17;;;15.80;;
25988;SDS011;13778;48.236;9.894;2024-02-26T11:00:57;22.20;;;13.48;;
25988;SDS011;13778;48.236;9.894;2024-02-26T11:03:47;21.98;;;12.25;;
25988;SDS011;13778;48.236;9.894;2024-02-26T11:06:38;17.30;;;11.55;;
25988;SDS011;13778;48.236;9.894;2024-02-26T11:09:28;17.70;;;12.70;;
25988;SDS011;13778;48.236;9.894;2024-02-26T11:12:19;20.95;;;11.77;;
25988;SDS011;13778;48.236;9.894;2024-02-26T11:15:12;18.23;;;13.60;;
25988;SDS011;13778;48.236;9.894;2024-02-26T11:20:52;18.60;;;13.93;;
25988;SDS011;13778;48.236;9.894;2024-02-26T11:23:46;16.92;;;10.90;;
25988;SDS011;13778;48.236;9.894;2024-02-26T11:26:38;14.45;;;10.48;;
25988;SDS011;13778;48.236;9.894;2024-02-26T11:29:32;15.35;;;11.52;;
25988;SDS011;13778;48.236;9.894;2024-02-26T11:32:24;18.83;;;12.20;;
25988;SDS011;13778;48.236;9.894;2024-02-26T11:38:06;16.33;;;10.57;;
25988;SDS011;13778;48.236;9.894;2024-02-26T11:40:57;15.98;;;9.70;;
25988;SDS011;13778;48.236;9.894;2024-02-26T11:43:49;14.63;;;10.30;;
25988;SDS011;13778;48.236;9.894;2024-02-26T11:46:39;19.53;;;11.07;;
25988;SDS011;13778;48.236;9.894;2024-02-26T11:49:32;18.90;;;11.77;;
25988;SDS011;13778;48.236;9.894;2024-02-26T11:52:23;17.15;;;10.50;;
25988;SDS011;13778;48.236;9.894;2024-02-26T11:55:14;19.30;;;10.32;;
25988;SDS011;13778;48.236;9.894;2024-02-26T11:58:21;16.52;;;10.63;;
25988;SDS011;13778;48.236;9.894;2024-02-26T12:04:22;14.55;;;10.85;;
25988;SDS011;13778;48.236;9.894;2024-02-26T12:07:16;13.93;;;10.25;;
25988;SDS011;13778;48.236;9.894;2024-02-26T12:12:58;16.63;;;10.05;;
25988;SDS011;13778;48.236;9.894;2024-02-26T12:15:54;18.02;;;10.80;;
25988;SDS011;13778;48.236;9.894;2024-02-26T12:18:45;16.38;;;10.30;;
25988;SDS011;13778;48.236;9.894;2024-02-26T12:21:36;13.63;;;10.35;;
25988;SDS011;13778;48.236;9.894;2024-02-26T12:24:28;15.77;;;10.50;;
25988;SDS011;13778;48.236;9.894;2024-02-26T12:30:09;14.68;;;10.30;;
25988;SDS011;13778;48.236;9.894;2024-02-26T12:33:00;16.75;;;10.82;;
25988;SDS011;13778;48.236;9.894;2024-02-26T12:35:50;16.08;;;11.48;;
25988;SDS011;13778;48.236;9.894;2024-02-26T12:38:41;14.40;;;11.23;;
25988;SDS011;13778;48.236;9.894;2024-02-26T12:41:33;15.13;;;10.75;;
25988;SDS011;13778;48.236;9.894;2024-02-26T12:44:24;15.40;;;10.30;;
25988;SDS011;13778;48.236;9.894;2024-02-26T12:47:14;14.93;;;10.38;;
25988;SDS011;13778;48.236;9.894;2024-02-26T12:50:06;14.60;;;10.77;;
25988;SDS011;13778;48.236;9.894;2024-02-26T12:52:57;13.30;;;9.88;;
25988;SDS011;13778;48.236;9.894;2024-02-26T12:55:48;15.75;;;10.57;;
25988;SDS011;13778;48.236;9.894;2024-02-26T12:58:40;14.30;;;10.02;;
25988;SDS011;13778;48.236;9.894;2024-02-26T13:01:30;14.60;;;10.13;;
25988;SDS011;13778;48.236;9.894;2024-02-26T13:04:21;13.45;;;9.57;;
25988;SDS011;13778;48.236;9.894;2024-02-26T13:07:11;13.38;;;9.85;;
25988;SDS011;13778;48.236;9.894;2024-02-26T13:10:02;16.23;;;11.05;;
25988;SDS011;13778;48.236;9.894;2024-02-26T13:12:53;13.18;;;10.23;;
25988;SDS011;13778;48.236;9.894;2024-02-26T13:15:45;16.63;;;10.25;;
25988;SDS011;13778;48.236;9.894;2024-02-26T13:18:35;14.52;;;10.70;;
25988;SDS011;13778;48.236;9.894;2024-02-26T13:21:26;14.05;;;10.00;;
25988;SDS011;13778;48.236;9.894;2024-02-26T13:24:20;13.43;;;9.70;;
25988;SDS011;13778;48.236;9.894;2024-02-26T13:27:11;14.90;;;10.65;;
25988;SDS011;13778;48.236;9.894;2024-02-26T13:30:05;17.45;;;9.82;;
25988;SDS011;13778;48.236;9.894;2024-02-26T13:33:08;14.95;;;9.32;;
25988;SDS011;13778;48.236;9.894;2024-02-26T13:35:59;17.38;;;10.32;;
25988;SDS011;13778;48.236;9.894;2024-02-26T13:38:53;14.65;;;9.77;;
25988;SDS011;13778;48.236;9.894;2024-02-26T13:41:43;15.00;;;10.25;;
25988;SDS011;13778;48.236;9.894;2024-02-26T13:44:34;13.07;;;9.50;;
25988;SDS011;13778;48.236;9.894;2024-02-26T13:47:28;15.93;;;11.10;;
25988;SDS011;13778;48.236;9.894;2024-02-26T13:50:20;15.77;;;10.98;;
25988;SDS011;13778;48.236;9.894;2024-02-26T13:53:12;15.25;;;10.10;;
25988;SDS011;13778;48.236;9.894;2024-02-26T13:56:03;13.90;;;10.10;;
25988;SDS011;13778;48.236;9.894;2024-02-26T13:58:54;14.27;;;9.82;;
25988;SDS011;13778;48.236;9.894;2024-02-26T14:01:45;14.68;;;9.32;;
25988;SDS011;13778;48.236;9.894;2024-02-26T14:04:36;14.02;;;10.27;;
25988;SDS011;13778;48.236;9.894;2024-02-26T14:07:27;14.68;;;10.07;;
25988;SDS011;13778;48.236;9.894;2024-02-26T14:10:18;16.17;;;10.65;;
25988;SDS011;13778;48.236;9.894;2024-02-26T14:13:08;13.07;;;9.60;;
25988;SDS011;13778;48.236;9.894;2024-02-26T14:15:59;12.50;;;9.48;;
25988;SDS011;13778;48.236;9.894;2024-02-26T14:18:49;14.43;;;10.88;;
25988;SDS011;13778;48.236;9.894;2024-02-26T14:21:40;14.80;;;10.93;;
25988;SDS011;13778;48.236;9.894;2024-02-26T14:24:32;13.85;;;9.35;;
25988;SDS011;13778;48.236;9.894;2024-02-26T14:27:22;15.85;;;10.27;;
25988;SDS011;13778;48.236;9.894;2024-02-26T14:30:13;14.93;;;10.85;;
25988;SDS011;13778;48.236;9.894;2024-02-26T14:33:04;19.65;;;12.88;;
25988;SDS011;13778;48.236;9.894;2024-02-26T14:35:54;13.23;;;9.23;;
25988;SDS011;13778;48.236;9.894;2024-02-26T14:38:45;19.55;;;13.70;;
25988;SDS011;13778;48.236;9.894;2024-02-26T14:41:37;25.40;;;13.32;;
25988;SDS011;13778;48.236;9.894;2024-02-26T14:44:27;15.45;;;11.85;;
25988;SDS011;13778;48.236;9.894;2024-02-26T14:47:18;15.88;;;10.15;;
25988;SDS011;13778;48.236;9.894;2024-02-26T14:50:08;14.88;;;9.45;;
25988;SDS011;13778;48.236;9.894;2024-02-26T14:52:58;15.55;;;10.63;;
25988;SDS011;13778;48.236;9.894;2024-02-26T14:55:49;12.18;;;9.40;;
25988;SDS011;13778;48.236;9.894;2024-02-26T14:58:40;13.85;;;9.02;;
25988;SDS011;13778;48.236;9.894;2024-02-26T15:04:21;11.75;;;9.60;;
25988;SDS011;13778;48.236;9.894;2024-02-26T15:07:12;11.95;;;9.10;;
25988;SDS011;13778;48.236;9.894;2024-02-26T15:10:02;18.42;;;11.02;;
25988;SDS011;13778;48.236;9.894;2024-02-26T15:12:53;30.23;;;20.90;;
25988;SDS011;13778;48.236;9.894;2024-02-26T15:15:45;14.75;;;10.35;;
25988;SDS011;13778;48.236;9.894;2024-02-26T15:18:36;16.25;;;10.75;;
25988;SDS011;13778;48.236;9.894;2024-02-26T15:21:26;17.80;;;10.63;;
25988;SDS011;13778;48.236;9.894;2024-02-26T15:24:17;19.83;;;10.75;;
25988;SDS011;13778;48.236;9.894;2024-02-26T15:27:07;14.80;;;9.93;;
25988;SDS011;13778;48.236;9.894;2024-02-26T15:30:00;12.77;;;9.40;;
25988;SDS011;13778;48.236;9.894;2024-02-26T15:32:52;17.25;;;9.45;;
25988;SDS011;13778;48.236;9.894;2024-02-26T15:35:43;15.02;;;10.13;;
25988;SDS011;13778;48.236;9.894;2024-02-26T15:38:34;12.93;;;9.07;;
25988;SDS011;13778;48.236;9.894;2024-02-26T15:41:24;15.75;;;10.32;;
25988;SDS011;13778;48.236;9.894;2024-02-26T15:44:15;17.27;;;10.48;;
25988;SDS011;13778;48.236;9.894;2024-02-26T15:47:05;15.38;;;9.45;;
25988;SDS011;13778;48.236;9.894;2024-02-26T15:49:57;15.43;;;9.60;;
25988;SDS011;13778;48.236;9.894;2024-02-26T15:55:38;14.70;;;9.82;;
25988;SDS011;13778;48.236;9.894;2024-02-26T15:58:29;15.70;;;10.35;;
25988;SDS011;13778;48.236;9.894;2024-02-26T16:01:19;12.18;;;8.85;;
25988;SDS011;13778;48.236;9.894;2024-02-26T16:04:09;12.65;;;9.23;;
25988;SDS011;13778;48.236;9.894;2024-02-26T16:07:02;15.90;;;9.90;;
25988;SDS011;13778;48.236;9.894;2024-02-26T16:09:56;13.18;;;9.00;;
25988;SDS011;13778;48.236;9.894;2024-02-26T16:12:47;14.65;;;9.85;;
25988;SDS011;13778;48.236;9.894;2024-02-26T16:15:39;12.48;;;9.63;;
25988;SDS011;13778;48.236;9.894;2024-02-26T16:18:33;20.33;;;9.07;;
25988;SDS011;13778;48.236;9.894;2024-02-26T16:21:24;13.85;;;9.18;;
25988;SDS011;13778;48.236;9.894;2024-02-26T16:24:16;15.55;;;9.85;;
25988;SDS011;13778;48.236;9.894;2024-02-26T16:27:06;13.85;;;9.77;;
25988;SDS011;13778;48.236;9.894;2024-02-26T16:29:57;16.25;;;10.35;;
25988;SDS011;13778;48.236;9.894;2024-02-26T16:32:47;16.80;;;10.02;;
25988;SDS011;13778;48.236;9.894;2024-02-26T16:35:38;15.23;;;10.85;;
25988;SDS011;13778;48.236;9.894;2024-02-26T16:38:28;18.23;;;10.55;;
25988;SDS011;13778;48.236;9.894;2024-02-26T16:41:20;17.63;;;10.88;;
25988;SDS011;13778;48.236;9.894;2024-02-26T16:44:11;15.18;;;10.68;;
25988;SDS011;13778;48.236;9.894;2024-02-26T16:47:01;16.08;;;10.60;;
25988;SDS011;13778;48.236;9.894;2024-02-26T16:49:51;15.63;;;10.60;;
25988;SDS011;13778;48.236;9.894;2024-02-26T16:52:42;14.98;;;10.90;;
25988;SDS011;13778;48.236;9.894;2024-02-26T16:55:32;15.60;;;10.68;;
25988;SDS011;13778;48.236;9.894;2024-02-26T16:58:24;15.23;;;12.45;;
25988;SDS011;13778;48.236;9.894;2024-02-26T17:01:15;13.95;;;10.93;;
25988;SDS011;13778;48.236;9.894;2024-02-26T17:04:05;17.00;;;10.75;;
25988;SDS011;13778;48.236;9.894;2024-02-26T17:06:56;16.98;;;11.40;;
25988;SDS011;13778;48.236;9.894;2024-02-26T17:09:46;14.70;;;11.10;;
25988;SDS011;13778;48.236;9.894;2024-02-26T17:12:37;15.00;;;10.65;;
25988;SDS011;13778;48.236;9.894;2024-02-26T17:15:29;21.55;;;12.00;;
25988;SDS011;13778;48.236;9.894;2024-02-26T17:18:19;20.65;;;13.43;;
25988;SDS011;13778;48.236;9.894;2024-02-26T17:21:10;18.85;;;11.77;;
25988;SDS011;13778;48.236;9.894;2024-02-26T17:24:00;18.00;;;11.48;;
25988;SDS011;13778;48.236;9.894;2024-02-26T17:26:50;17.65;;;11.30;;
25988;SDS011;13778;48.236;9.894;2024-02-26T17:29:41;15.05;;;9.70;;
25988;SDS011;13778;48.236;9.894;2024-02-26T17:32:32;14.50;;;9.55;;
25988;SDS011;13778;48.236;9.894;2024-02-26T17:35:23;16.33;;;9.52;;
25988;SDS011;13778;48.236;9.894;2024-02-26T17:38:14;12.73;;;8.43;;
25988;SDS011;13778;48.236;9.894;2024-02-26T17:41:05;14.05;;;9.25;;
25988;SDS011;13778;48.236;9.894;2024-02-26T17:43:56;16.17;;;9.48;;
25988;SDS011;13778;48.236;9.894;2024-02-26T17:46:47;11.48;;;9.40;;
25988;SDS011;13778;48.236;9.894;2024-02-26T17:49:39;16.35;;;10.35;;
25988;SDS011;13778;48.236;9.894;2024-02-26T17:52:30;17.02;;;10.48;;
25988;SDS011;13778;48.236;9.894;2024-02-26T17:55:25;16.88;;;11.20;;
25988;SDS011;13778;48.236;9.894;2024-02-26T17:58:15;14.00;;;10.30;;